sensor_id;sensor_type;location;lat;lon;timestamp;P1;durP1;ratioP1;P2;durP2;ratioP2
62844;SDS011;48929;47.910;20.390;2022-07-29T00:00:15;8.27;;;6.15;;
62844;SDS011;48929;47.910;20.390;2022-07-29T00:02:58;8.07;;;6.30;;
62844;SDS011;48929;47.910;20.390;2022-07-29T00:05:38;6.97;;;5.95;;
62844;SDS011;48929;47.910;20.390;2022-07-29T00:09:10;7.22;;;6.53;;
62844;SDS011;48929;47.910;20.390;2022-07-29T00:24:22;8.00;;;6.07;;
62844;SDS011;48929;47.910;20.390;2022-07-29T00:30:49;9.20;;;6.38;;
62844;SDS011;48929;47.910;20.390;2022-07-29T00:33:47;7.72;;;6.57;;
62844;SDS011;48929;47.910;20.390;2022-07-29T00:37:10;8.27;;;6.55;;
62844;SDS011;48929;47.910;20.390;2022-07-29T00:40:05;7.75;;;6.30;;
62844;SDS011;48929;47.910;20.390;2022-07-29T00:42:52;7.15;;;6.40;;
62844;SDS011;48929;47.910;20.390;2022-07-29T00:45:33;7.45;;;6.47;;
62844;SDS011;48929;47.910;20.390;2022-07-29T00:48:09;6.93;;;6.22;;
62844;SDS011;48929;47.910;20.390;2022-07-29T00:50:42;7.80;;;6.07;;
62844;SDS011;48929;47.910;20.390;2022-07-29T00:56:10;8.27;;;6.15;;
62844;SDS011;48929;47.910;20.390;2022-07-29T00:59:02;7.32;;;6.53;;
62844;SDS011;48929;47.910;20.390;2022-07-29T01:04:45;7.68;;;6.40;;
62844;SDS011;48929;47.910;20.390;2022-07-29T01:07:25;8.52;;;7.10;;
62844;SDS011;48929;47.910;20.390;2022-07-29T01:13:40;7.28;;;6.53;;
62844;SDS011;48929;47.910;20.390;2022-07-29T01:17:21;10.32;;;6.82;;
62844;SDS011;48929;47.910;20.390;2022-07-29T01:20:24;7.95;;;6.63;;
62844;SDS011;48929;47.910;20.390;2022-07-29T01:27:38;8.10;;;7.07;;
62844;SDS011;48929;47.910;20.390;2022-07-29T01:30:54;8.15;;;7.10;;
62844;SDS011;48929;47.910;20.390;2022-07-29T01:33:55;8.15;;;6.63;;
62844;SDS011;48929;47.910;20.390;2022-07-29T01:37:12;8.70;;;6.53;;
62844;SDS011;48929;47.910;20.390;2022-07-29T01:40:18;8.30;;;6.45;;
62844;SDS011;48929;47.910;20.390;2022-07-29T01:46:25;7.90;;;6.45;;
62844;SDS011;48929;47.910;20.390;2022-07-29T01:49:08;8.27;;;6.50;;
62844;SDS011;48929;47.910;20.390;2022-07-29T01:52:23;7.47;;;6.68;;
62844;SDS011;48929;47.910;20.390;2022-07-29T01:55:02;8.48;;;6.65;;
62844;SDS011;48929;47.910;20.390;2022-07-29T01:57:56;7.43;;;6.60;;
62844;SDS011;48929;47.910;20.390;2022-07-29T02:00:27;7.75;;;6.60;;
62844;SDS011;48929;47.910;20.390;2022-07-29T02:10:29;10.45;;;6.65;;
62844;SDS011;48929;47.910;20.390;2022-07-29T02:13:36;7.00;;;6.30;;
62844;SDS011;48929;47.910;20.390;2022-07-29T02:24:59;7.53;;;6.60;;
62844;SDS011;48929;47.910;20.390;2022-07-29T02:28:17;7.47;;;6.30;;
62844;SDS011;48929;47.910;20.390;2022-07-29T02:34:51;7.20;;;6.13;;
62844;SDS011;48929;47.910;20.390;2022-07-29T02:41:25;7.47;;;6.20;;
62844;SDS011;48929;47.910;20.390;2022-07-29T02:43:57;8.00;;;6.40;;
62844;SDS011;48929;47.910;20.390;2022-07-29T02:47:10;7.45;;;6.30;;
62844;SDS011;48929;47.910;20.390;2022-07-29T02:50:37;7.45;;;6.13;;
62844;SDS011;48929;47.910;20.390;2022-07-29T02:54:11;8.43;;;6.20;;
62844;SDS011;48929;47.910;20.390;2022-07-29T02:57:18;8.18;;;6.80;;
62844;SDS011;48929;47.910;20.390;2022-07-29T03:00:21;7.93;;;6.53;;
62844;SDS011;48929;47.910;20.390;2022-07-29T03:03:15;7.22;;;6.47;;
62844;SDS011;48929;47.910;20.390;2022-07-29T03:05:59;7.68;;;6.85;;
62844;SDS011;48929;47.910;20.390;2022-07-29T03:09:05;8.18;;;6.57;;
62844;SDS011;48929;47.910;20.390;2022-07-29T03:11:39;8.02;;;6.75;;
62844;SDS011;48929;47.910;20.390;2022-07-29T03:14:22;9.50;;;6.75;;
62844;SDS011;48929;47.910;20.390;2022-07-29T03:16:55;7.35;;;6.50;;
62844;SDS011;48929;47.910;20.390;2022-07-29T03:23:07;8.88;;;6.90;;
62844;SDS011;48929;47.910;20.390;2022-07-29T03:26:07;8.65;;;6.70;;
62844;SDS011;48929;47.910;20.390;2022-07-29T03:28:40;9.48;;;7.68;;
62844;SDS011;48929;47.910;20.390;2022-07-29T03:34:52;9.23;;;7.00;;
62844;SDS011;48929;47.910;20.390;2022-07-29T03:37:34;8.10;;;6.93;;
62844;SDS011;48929;47.910;20.390;2022-07-29T03:40:40;8.50;;;6.85;;
62844;SDS011;48929;47.910;20.390;2022-07-29T03:43:18;8.95;;;6.93;;
62844;SDS011;48929;47.910;20.390;2022-07-29T03:46:18;8.02;;;6.60;;
62844;SDS011;48929;47.910;20.390;2022-07-29T03:49:07;8.55;;;7.22;;
62844;SDS011;48929;47.910;20.390;2022-07-29T03:52:57;10.07;;;6.97;;
62844;SDS011;48929;47.910;20.390;2022-07-29T03:55:40;8.40;;;6.72;;
62844;SDS011;48929;47.910;20.390;2022-07-29T04:01:08;10.80;;;6.82;;
62844;SDS011;48929;47.910;20.390;2022-07-29T04:03:58;8.50;;;7.13;;
62844;SDS011;48929;47.910;20.390;2022-07-29T04:10:58;10.60;;;7.10;;
62844;SDS011;48929;47.910;20.390;2022-07-29T04:14:02;8.85;;;7.30;;
62844;SDS011;48929;47.910;20.390;2022-07-29T04:16:38;11.13;;;7.13;;
62844;SDS011;48929;47.910;20.390;2022-07-29T04:19:09;10.05;;;7.05;;
62844;SDS011;48929;47.910;20.390;2022-07-29T04:21:44;9.50;;;6.97;;
62844;SDS011;48929;47.910;20.390;2022-07-29T04:25:03;9.52;;;7.03;;
62844;SDS011;48929;47.910;20.390;2022-07-29T04:27:35;8.98;;;7.00;;
62844;SDS011;48929;47.910;20.390;2022-07-29T04:37:20;9.70;;;6.68;;
62844;SDS011;48929;47.910;20.390;2022-07-29T04:39:54;9.07;;;6.90;;
62844;SDS011;48929;47.910;20.390;2022-07-29T04:42:51;9.70;;;6.78;;
62844;SDS011;48929;47.910;20.390;2022-07-29T04:45:26;7.28;;;6.13;;
62844;SDS011;48929;47.910;20.390;2022-07-29T04:49:45;7.70;;;6.10;;
62844;SDS011;48929;47.910;20.390;2022-07-29T04:51:29;8.93;;;6.22;;
62844;SDS011;48929;47.910;20.390;2022-07-29T04:54:43;9.75;;;6.68;;
62844;SDS011;48929;47.910;20.390;2022-07-29T05:00:39;7.35;;;6.43;;
62844;SDS011;48929;47.910;20.390;2022-07-29T05:03:23;8.32;;;6.03;;
62844;SDS011;48929;47.910;20.390;2022-07-29T05:05:52;7.50;;;6.10;;
62844;SDS011;48929;47.910;20.390;2022-07-29T05:08:24;7.18;;;5.68;;
62844;SDS011;48929;47.910;20.390;2022-07-29T05:10:54;6.75;;;5.88;;
62844;SDS011;48929;47.910;20.390;2022-07-29T05:13:44;7.07;;;6.38;;
62844;SDS011;48929;47.910;20.390;2022-07-29T05:16:21;7.25;;;6.15;;
62844;SDS011;48929;47.910;20.390;2022-07-29T05:22:30;10.10;;;6.50;;
62844;SDS011;48929;47.910;20.390;2022-07-29T05:25:27;6.20;;;5.60;;
62844;SDS011;48929;47.910;20.390;2022-07-29T05:28:12;6.43;;;5.63;;
62844;SDS011;48929;47.910;20.390;2022-07-29T05:30:54;6.68;;;6.00;;
62844;SDS011;48929;47.910;20.390;2022-07-29T05:33:23;6.55;;;5.85;;
62844;SDS011;48929;47.910;20.390;2022-07-29T05:36:10;8.00;;;5.63;;
62844;SDS011;48929;47.910;20.390;2022-07-29T05:38:51;9.60;;;5.90;;
62844;SDS011;48929;47.910;20.390;2022-07-29T05:41:25;6.35;;;5.75;;
62844;SDS011;48929;47.910;20.390;2022-07-29T05:50:34;7.85;;;5.97;;
62844;SDS011;48929;47.910;20.390;2022-07-29T05:53:17;7.20;;;5.72;;
62844;SDS011;48929;47.910;20.390;2022-07-29T05:56:49;7.30;;;5.93;;
62844;SDS011;48929;47.910;20.390;2022-07-29T06:00:18;7.13;;;6.07;;
62844;SDS011;48929;47.910;20.390;2022-07-29T06:03:16;6.53;;;5.82;;
62844;SDS011;48929;47.910;20.390;2022-07-29T06:05:54;6.85;;;5.60;;
62844;SDS011;48929;47.910;20.390;2022-07-29T06:08:56;7.38;;;5.60;;
62844;SDS011;48929;47.910;20.390;2022-07-29T06:11:42;6.72;;;6.03;;
62844;SDS011;48929;47.910;20.390;2022-07-29T06:14:30;6.88;;;5.88;;
62844;SDS011;48929;47.910;20.390;2022-07-29T06:17:34;8.52;;;5.95;;
62844;SDS011;48929;47.910;20.390;2022-07-29T06:20:26;6.93;;;5.70;;
62844;SDS011;48929;47.910;20.390;2022-07-29T06:23:10;7.85;;;5.90;;
62844;SDS011;48929;47.910;20.390;2022-07-29T06:27:13;8.23;;;5.88;;
62844;SDS011;48929;47.910;20.390;2022-07-29T06:35:42;8.07;;;5.88;;
62844;SDS011;48929;47.910;20.390;2022-07-29T06:54:07;8.20;;;5.88;;
62844;SDS011;48929;47.910;20.390;2022-07-29T07:55:55;7.43;;;6.03;;
62844;SDS011;48929;47.910;20.390;2022-07-29T08:01:44;9.52;;;5.93;;
62844;SDS011;48929;47.910;20.390;2022-07-29T08:04:35;7.80;;;5.90;;
62844;SDS011;48929;47.910;20.390;2022-07-29T08:07:27;9.00;;;5.60;;
62844;SDS011;48929;47.910;20.390;2022-07-29T08:10:05;7.93;;;5.60;;
62844;SDS011;48929;47.910;20.390;2022-07-29T08:13:13;6.57;;;5.40;;
62844;SDS011;48929;47.910;20.390;2022-07-29T08:16:47;7.43;;;5.40;;
62844;SDS011;48929;47.910;20.390;2022-07-29T08:19:13;9.43;;;5.68;;
62844;SDS011;48929;47.910;20.390;2022-07-29T08:22:43;6.05;;;5.18;;
62844;SDS011;48929;47.910;20.390;2022-07-29T08:32:08;6.55;;;5.25;;
62844;SDS011;48929;47.910;20.390;2022-07-29T08:35:26;6.18;;;5.55;;
62844;SDS011;48929;47.910;20.390;2022-07-29T08:38:28;9.20;;;5.38;;
62844;SDS011;48929;47.910;20.390;2022-07-29T08:41:38;6.63;;;5.10;;
62844;SDS011;48929;47.910;20.390;2022-07-29T08:44:23;6.80;;;5.00;;
62844;SDS011;48929;47.910;20.390;2022-07-29T08:50:44;6.68;;;5.20;;
62844;SDS011;48929;47.910;20.390;2022-07-29T08:57:26;6.88;;;5.22;;
62844;SDS011;48929;47.910;20.390;2022-07-29T09:00:04;6.35;;;5.15;;
62844;SDS011;48929;47.910;20.390;2022-07-29T09:02:57;7.68;;;4.82;;
62844;SDS011;48929;47.910;20.390;2022-07-29T09:08:30;5.82;;;5.22;;
62844;SDS011;48929;47.910;20.390;2022-07-29T09:16:07;5.45;;;4.63;;
62844;SDS011;48929;47.910;20.390;2022-07-29T09:23:30;7.47;;;4.90;;
62844;SDS011;48929;47.910;20.390;2022-07-29T09:26:05;6.47;;;5.20;;
62844;SDS011;48929;47.910;20.390;2022-07-29T09:29:15;5.30;;;4.80;;
62844;SDS011;48929;47.910;20.390;2022-07-29T10:03:40;7.85;;;5.30;;
62844;SDS011;48929;47.910;20.390;2022-07-29T10:10:44;6.38;;;4.60;;
62844;SDS011;48929;47.910;20.390;2022-07-29T10:22:46;6.13;;;4.75;;
62844;SDS011;48929;47.910;20.390;2022-07-29T10:29:33;5.32;;;4.10;;
62844;SDS011;48929;47.910;20.390;2022-07-29T10:32:38;3.90;;;3.50;;
62844;SDS011;48929;47.910;20.390;2022-07-29T10:36:11;6.07;;;4.43;;
62844;SDS011;48929;47.910;20.390;2022-07-29T10:40:42;7.07;;;3.88;;
62844;SDS011;48929;47.910;20.390;2022-07-29T10:44:22;9.15;;;4.00;;
62844;SDS011;48929;47.910;20.390;2022-07-29T10:51:01;5.82;;;3.97;;
62844;SDS011;48929;47.910;20.390;2022-07-29T11:26:33;3.65;;;3.30;;
62844;SDS011;48929;47.910;20.390;2022-07-29T11:34:03;5.57;;;3.85;;
62844;SDS011;48929;47.910;20.390;2022-07-29T11:38:22;4.82;;;3.60;;
62844;SDS011;48929;47.910;20.390;2022-07-29T11:48:22;6.32;;;3.90;;
62844;SDS011;48929;47.910;20.390;2022-07-29T11:51:50;7.93;;;3.80;;
62844;SDS011;48929;47.910;20.390;2022-07-29T11:58:28;4.80;;;4.03;;
62844;SDS011;48929;47.910;20.390;2022-07-29T12:05:48;6.60;;;4.47;;
62844;SDS011;48929;47.910;20.390;2022-07-29T12:08:18;5.80;;;4.20;;
62844;SDS011;48929;47.910;20.390;2022-07-29T12:10:49;6.45;;;3.83;;
62844;SDS011;48929;47.910;20.390;2022-07-29T12:34:14;7.43;;;4.15;;
62844;SDS011;48929;47.910;20.390;2022-07-29T12:37:34;7.00;;;4.40;;
62844;SDS011;48929;47.910;20.390;2022-07-29T14:44:23;7.07;;;5.13;;
62844;SDS011;48929;47.910;20.390;2022-07-29T14:47:04;5.50;;;4.85;;
62844;SDS011;48929;47.910;20.390;2022-07-29T18:46:26;6.45;;;5.45;;
62844;SDS011;48929;47.910;20.390;2022-07-29T18:53:34;9.02;;;5.97;;
62844;SDS011;48929;47.910;20.390;2022-07-29T18:56:54;8.75;;;5.40;;
62844;SDS011;48929;47.910;20.390;2022-07-29T18:59:54;6.53;;;5.88;;
62844;SDS011;48929;47.910;20.390;2022-07-29T19:02:36;6.13;;;5.53;;
62844;SDS011;48929;47.910;20.390;2022-07-29T19:05:25;7.32;;;5.32;;
62844;SDS011;48929;47.910;20.390;2022-07-29T19:15:50;7.78;;;5.30;;
62844;SDS011;48929;47.910;20.390;2022-07-29T19:18:59;6.05;;;5.07;;
62844;SDS011;48929;47.910;20.390;2022-07-29T19:21:38;6.65;;;5.18;;
62844;SDS011;48929;47.910;20.390;2022-07-29T19:24:19;6.88;;;5.28;;
62844;SDS011;48929;47.910;20.390;2022-07-29T19:26:55;6.82;;;5.05;;
62844;SDS011;48929;47.910;20.390;2022-07-29T19:29:28;6.40;;;4.72;;
62844;SDS011;48929;47.910;20.390;2022-07-29T19:32:13;7.22;;;4.90;;
62844;SDS011;48929;47.910;20.390;2022-07-29T19:34:52;8.32;;;4.53;;
62844;SDS011;48929;47.910;20.390;2022-07-29T19:37:53;5.78;;;5.10;;
62844;SDS011;48929;47.910;20.390;2022-07-29T19:40:37;7.20;;;5.05;;
62844;SDS011;48929;47.910;20.390;2022-07-29T19:43:14;6.43;;;5.13;;
62844;SDS011;48929;47.910;20.390;2022-07-29T19:46:08;7.85;;;5.38;;
62844;SDS011;48929;47.910;20.390;2022-07-29T19:48:41;6.65;;;5.00;;
62844;SDS011;48929;47.910;20.390;2022-07-29T19:51:13;7.70;;;5.30;;
62844;SDS011;48929;47.910;20.390;2022-07-29T19:53:48;6.43;;;5.40;;
62844;SDS011;48929;47.910;20.390;2022-07-29T19:56:27;8.88;;;5.80;;
62844;SDS011;48929;47.910;20.390;2022-07-29T19:59:11;8.10;;;5.28;;
62844;SDS011;48929;47.910;20.390;2022-07-29T20:01:49;7.28;;;5.43;;
62844;SDS011;48929;47.910;20.390;2022-07-29T20:04:26;7.00;;;5.60;;
62844;SDS011;48929;47.910;20.390;2022-07-29T20:06:57;7.63;;;5.65;;
62844;SDS011;48929;47.910;20.390;2022-07-29T20:09:29;11.48;;;5.85;;
62844;SDS011;48929;47.910;20.390;2022-07-29T20:12:01;10.32;;;6.38;;
62844;SDS011;48929;47.910;20.390;2022-07-29T20:14:30;6.90;;;5.95;;
62844;SDS011;48929;47.910;20.390;2022-07-29T20:17:10;6.53;;;5.82;;
62844;SDS011;48929;47.910;20.390;2022-07-29T20:19:42;6.28;;;5.50;;
62844;SDS011;48929;47.910;20.390;2022-07-29T20:22:13;6.97;;;5.80;;
62844;SDS011;48929;47.910;20.390;2022-07-29T20:24:52;7.22;;;5.28;;
62844;SDS011;48929;47.910;20.390;2022-07-29T20:27:22;9.95;;;6.68;;
62844;SDS011;48929;47.910;20.390;2022-07-29T20:29:51;10.90;;;7.03;;
62844;SDS011;48929;47.910;20.390;2022-07-29T20:32:20;8.98;;;6.97;;
62844;SDS011;48929;47.910;20.390;2022-07-29T20:34:49;10.35;;;5.93;;
62844;SDS011;48929;47.910;20.390;2022-07-29T20:37:21;11.20;;;6.15;;
62844;SDS011;48929;47.910;20.390;2022-07-29T20:39:50;9.10;;;6.20;;
62844;SDS011;48929;47.910;20.390;2022-07-29T20:42:19;7.93;;;5.90;;
62844;SDS011;48929;47.910;20.390;2022-07-29T20:44:50;8.38;;;6.03;;
62844;SDS011;48929;47.910;20.390;2022-07-29T20:47:20;9.35;;;6.03;;
62844;SDS011;48929;47.910;20.390;2022-07-29T20:49:54;7.35;;;6.25;;
62844;SDS011;48929;47.910;20.390;2022-07-29T20:52:27;7.13;;;6.03;;
62844;SDS011;48929;47.910;20.390;2022-07-29T20:55:00;7.53;;;6.00;;
62844;SDS011;48929;47.910;20.390;2022-07-29T20:57:33;7.78;;;6.80;;
62844;SDS011;48929;47.910;20.390;2022-07-29T21:03:31;11.15;;;6.88;;
62844;SDS011;48929;47.910;20.390;2022-07-29T21:06:05;8.07;;;6.13;;
62844;SDS011;48929;47.910;20.390;2022-07-29T21:11:27;9.95;;;6.50;;
62844;SDS011;48929;47.910;20.390;2022-07-29T21:14:10;9.40;;;6.65;;
62844;SDS011;48929;47.910;20.390;2022-07-29T21:16:46;12.07;;;7.75;;
62844;SDS011;48929;47.910;20.390;2022-07-29T21:19:18;10.50;;;7.55;;
62844;SDS011;48929;47.910;20.390;2022-07-29T21:21:53;10.43;;;6.63;;
62844;SDS011;48929;47.910;20.390;2022-07-29T21:24:26;8.35;;;6.72;;
62844;SDS011;48929;47.910;20.390;2022-07-29T21:27:04;9.85;;;7.13;;
62844;SDS011;48929;47.910;20.390;2022-07-29T21:29:50;8.20;;;6.40;;
62844;SDS011;48929;47.910;20.390;2022-07-29T21:32:20;8.45;;;6.82;;
62844;SDS011;48929;47.910;20.390;2022-07-29T21:34:56;8.98;;;6.15;;
62844;SDS011;48929;47.910;20.390;2022-07-29T21:37:25;10.88;;;6.88;;
62844;SDS011;48929;47.910;20.390;2022-07-29T21:39:57;10.63;;;6.88;;
62844;SDS011;48929;47.910;20.390;2022-07-29T21:42:27;9.48;;;7.32;;
62844;SDS011;48929;47.910;20.390;2022-07-29T21:44:56;8.90;;;6.65;;
62844;SDS011;48929;47.910;20.390;2022-07-29T21:47:25;11.20;;;7.05;;
62844;SDS011;48929;47.910;20.390;2022-07-29T21:49:55;10.73;;;7.53;;
62844;SDS011;48929;47.910;20.390;2022-07-29T21:52:26;9.43;;;7.88;;
62844;SDS011;48929;47.910;20.390;2022-07-29T21:55:01;14.07;;;7.00;;
62844;SDS011;48929;47.910;20.390;2022-07-29T21:57:36;8.73;;;6.72;;
62844;SDS011;48929;47.910;20.390;2022-07-29T22:00:06;12.05;;;8.63;;
62844;SDS011;48929;47.910;20.390;2022-07-29T22:02:40;8.82;;;5.45;;
62844;SDS011;48929;47.910;20.390;2022-07-29T22:05:09;6.03;;;5.15;;
62844;SDS011;48929;47.910;20.390;2022-07-29T22:07:38;5.90;;;5.03;;
62844;SDS011;48929;47.910;20.390;2022-07-29T22:10:24;5.55;;;4.70;;
62844;SDS011;48929;47.910;20.390;2022-07-29T22:12:54;5.35;;;4.45;;
62844;SDS011;48929;47.910;20.390;2022-07-29T22:15:27;4.60;;;4.00;;
62844;SDS011;48929;47.910;20.390;2022-07-29T22:18:01;6.70;;;4.30;;
62844;SDS011;48929;47.910;20.390;2022-07-29T22:20:30;6.00;;;4.50;;
62844;SDS011;48929;47.910;20.390;2022-07-29T22:23:00;5.85;;;4.20;;
62844;SDS011;48929;47.910;20.390;2022-07-29T22:25:31;4.32;;;3.80;;
62844;SDS011;48929;47.910;20.390;2022-07-29T22:28:00;6.38;;;4.15;;
62844;SDS011;48929;47.910;20.390;2022-07-29T22:30:29;5.25;;;4.35;;
62844;SDS011;48929;47.910;20.390;2022-07-29T22:33:01;5.32;;;4.50;;
62844;SDS011;48929;47.910;20.390;2022-07-29T22:35:30;6.22;;;4.57;;
62844;SDS011;48929;47.910;20.390;2022-07-29T22:37:59;6.22;;;4.65;;
62844;SDS011;48929;47.910;20.390;2022-07-29T22:40:28;5.38;;;4.45;;
62844;SDS011;48929;47.910;20.390;2022-07-29T22:42:59;5.10;;;4.07;;
62844;SDS011;48929;47.910;20.390;2022-07-29T22:45:28;5.30;;;4.40;;
62844;SDS011;48929;47.910;20.390;2022-07-29T22:47:58;5.28;;;4.10;;
62844;SDS011;48929;47.910;20.390;2022-07-29T22:50:29;5.28;;;4.10;;
62844;SDS011;48929;47.910;20.390;2022-07-29T22:52:57;5.78;;;4.57;;
62844;SDS011;48929;47.910;20.390;2022-07-29T22:55:26;6.20;;;4.30;;
62844;SDS011;48929;47.910;20.390;2022-07-29T22:57:56;6.22;;;4.13;;
62844;SDS011;48929;47.910;20.390;2022-07-29T23:00:29;5.70;;;4.38;;
62844;SDS011;48929;47.910;20.390;2022-07-29T23:02:58;5.55;;;4.40;;
62844;SDS011;48929;47.910;20.390;2022-07-29T23:05:27;6.40;;;4.40;;
62844;SDS011;48929;47.910;20.390;2022-07-29T23:07:56;5.45;;;4.28;;
62844;SDS011;48929;47.910;20.390;2022-07-29T23:10:25;5.68;;;4.43;;
62844;SDS011;48929;47.910;20.390;2022-07-29T23:12:57;9.05;;;4.60;;
62844;SDS011;48929;47.910;20.390;2022-07-29T23:15:42;5.25;;;4.20;;
62844;SDS011;48929;47.910;20.390;2022-07-29T23:18:17;4.80;;;4.32;;
62844;SDS011;48929;47.910;20.390;2022-07-29T23:20:46;5.47;;;4.25;;
62844;SDS011;48929;47.910;20.390;2022-07-29T23:23:18;5.93;;;4.28;;
62844;SDS011;48929;47.910;20.390;2022-07-29T23:25:48;5.65;;;4.38;;
62844;SDS011;48929;47.910;20.390;2022-07-29T23:28:19;5.30;;;4.38;;
62844;SDS011;48929;47.910;20.390;2022-07-29T23:30:50;5.95;;;4.35;;
62844;SDS011;48929;47.910;20.390;2022-07-29T23:33:23;6.40;;;4.40;;
62844;SDS011;48929;47.910;20.390;2022-07-29T23:35:52;5.50;;;4.07;;
62844;SDS011;48929;47.910;20.390;2022-07-29T23:38:27;5.20;;;4.60;;
62844;SDS011;48929;47.910;20.390;2022-07-29T23:40:57;4.90;;;4.05;;
62844;SDS011;48929;47.910;20.390;2022-07-29T23:43:29;5.40;;;4.35;;
62844;SDS011;48929;47.910;20.390;2022-07-29T23:45:58;5.47;;;4.50;;
62844;SDS011;48929;47.910;20.390;2022-07-29T23:48:29;6.60;;;4.55;;
62844;SDS011;48929;47.910;20.390;2022-07-29T23:50:59;5.45;;;4.07;;
62844;SDS011;48929;47.910;20.390;2022-07-29T23:53:27;5.40;;;4.90;;
62844;SDS011;48929;47.910;20.390;2022-07-29T23:55:56;7.15;;;5.07;;
62844;SDS011;48929;47.910;20.390;2022-07-29T23:58:25;6.68;;;4.47;;
